createdAt,value
2022-11-27T00:00:12.839Z,101227.47
2022-11-27T00:02:40.931Z,101221.53
2022-11-27T00:05:10.585Z,101223.28
2022-11-27T00:07:38.209Z,101214.78
2022-11-27T00:10:07.930Z,101224.06
2022-11-27T00:12:35.908Z,101212.13
2022-11-27T00:15:03.935Z,101210.09
2022-11-27T00:17:31.561Z,101212.53
2022-11-27T00:19:59.185Z,101205.44
2022-11-27T00:22:28.106Z,101196.16
2022-11-27T00:24:55.808Z,101187.94
2022-11-27T00:27:23.501Z,101177.66
2022-11-27T00:29:51.109Z,101169.56
2022-11-27T00:32:18.787Z,101160.72
2022-11-27T00:34:46.340Z,101172.41
2022-11-27T00:37:14.790Z,101164.78
2022-11-27T00:39:43.750Z,101162.25
2022-11-27T00:42:11.434Z,101146.75
2022-11-27T00:44:39.244Z,101152.72
2022-11-27T00:47:07.087Z,101152.84
2022-11-27T00:49:34.726Z,101152.09
2022-11-27T00:52:02.441Z,101150.81
2022-11-27T00:54:30.026Z,101150.50
2022-11-27T00:56:59.036Z,101148.72
2022-11-27T00:59:26.946Z,101144.19
2022-11-27T01:01:54.579Z,101147.25
2022-11-27T01:04:22.314Z,101141.16
2022-11-27T01:06:49.951Z,101136.88
2022-11-27T01:09:17.797Z,101132.81
2022-11-27T01:11:45.445Z,101134.59
2022-11-27T01:14:17.303Z,101136.13
2022-11-27T01:16:45.266Z,101133.22
2022-11-27T01:19:14.148Z,101130.69
2022-11-27T01:21:42.224Z,101125.91
2022-11-27T01:24:12.839Z,101125.03
2022-11-27T01:26:40.542Z,101118.81
2022-11-27T01:29:08.261Z,101117.69
2022-11-27T01:31:37.466Z,101110.84
2022-11-27T01:34:07.693Z,101118.34
2022-11-27T01:36:36.324Z,101117.22
2022-11-27T01:39:05.400Z,101124.56
2022-11-27T01:41:35.062Z,101118.50
2022-11-27T01:44:04.994Z,101114.31
2022-11-27T01:46:39.199Z,101120.03
2022-11-27T01:49:22.778Z,101115.69
2022-11-27T01:51:53.828Z,101119.78
2022-11-27T01:54:23.116Z,101122.84
2022-11-27T01:56:56.353Z,101122.72
2022-11-27T01:59:25.091Z,101126.66
2022-11-27T02:01:54.191Z,101123.91
2022-11-27T02:04:21.807Z,101129.97
2022-11-27T02:06:49.456Z,101130.34
2022-11-27T02:09:17.516Z,101132.22
2022-11-27T02:11:55.326Z,101130.44
2022-11-27T02:18:43.857Z,101131.06
2022-11-27T02:21:19.493Z,101121.81
2022-11-27T02:24:02.081Z,101132.31
2022-11-27T02:27:03.049Z,101129.91
2022-11-27T02:29:34.207Z,101122.28
2022-11-27T02:32:10.832Z,101132.72
2022-11-27T02:34:47.402Z,101134.00
2022-11-27T02:37:21.027Z,101136.94
2022-11-27T02:39:57.369Z,101139.97
2022-11-27T02:42:28.131Z,101150.34
2022-11-27T02:45:02.182Z,101159.34
2022-11-27T02:47:31.685Z,101155.75
2022-11-27T02:50:00.998Z,101161.19
2022-11-27T02:52:29.945Z,101157.47
2022-11-27T02:55:01.456Z,101151.38
2022-11-27T02:57:30.659Z,101145.00
2022-11-27T03:00:01.497Z,101134.06
2022-11-27T03:02:33.889Z,101126.72
2022-11-27T03:05:05.997Z,101137.34
2022-11-27T03:07:38.879Z,101123.34
2022-11-27T03:10:11.007Z,101123.03
2022-11-27T03:12:38.614Z,101119.97
2022-11-27T03:15:09.032Z,101113.91
2022-11-27T03:17:51.425Z,101121.72
2022-11-27T03:20:24.659Z,101115.34
2022-11-27T03:22:54.064Z,101114.34
2022-11-27T03:25:21.771Z,101109.13
2022-11-27T03:27:53.686Z,101105.59
2022-11-27T03:30:22.821Z,101102.53
2022-11-27T03:32:50.646Z,101102.53
2022-11-27T03:35:23.464Z,101097.22
2022-11-27T03:37:52.109Z,101100.63
2022-11-27T03:40:20.609Z,101098.09
2022-11-27T03:42:59.845Z,101093.16
2022-11-27T03:45:34.726Z,101087.19
2022-11-27T03:48:14.316Z,101084.50
2022-11-27T03:50:55.669Z,101072.47
2022-11-27T03:53:29.254Z,101083.47
2022-11-27T03:56:09.652Z,101080.44
2022-11-27T03:58:41.171Z,101084.28
2022-11-27T04:01:14.391Z,101085.84
2022-11-27T04:03:42.051Z,101079.03
2022-11-27T04:06:09.686Z,101084.44
2022-11-27T04:08:37.278Z,101089.84
2022-11-27T04:11:05.015Z,101083.81
2022-11-27T04:13:32.645Z,101087.13
2022-11-27T04:16:02.035Z,101077.44
2022-11-27T04:18:31.180Z,101065.22
2022-11-27T04:20:59.036Z,101064.94
2022-11-27T04:23:26.649Z,101072.22
2022-11-27T04:25:54.283Z,101065.06
2022-11-27T04:28:21.952Z,101057.00
2022-11-27T04:30:53.013Z,101055.00
2022-11-27T04:33:21.218Z,101063.63
2022-11-27T04:35:50.509Z,101067.22
2022-11-27T04:38:18.203Z,101064.75
2022-11-27T04:40:45.876Z,101071.19
2022-11-27T04:43:13.800Z,101074.28
2022-11-27T04:45:41.422Z,101068.94
2022-11-27T04:48:09.022Z,101074.84
2022-11-27T04:50:36.636Z,101065.00
2022-11-27T04:53:05.563Z,101050.44
2022-11-27T04:55:33.452Z,101055.09
2022-11-27T04:58:01.093Z,101037.34
2022-11-27T05:00:28.706Z,101039.41
2022-11-27T05:02:56.342Z,101058.53
2022-11-27T05:05:24.110Z,101050.34
2022-11-27T05:07:51.691Z,101037.97
2022-11-27T05:10:20.795Z,101035.66
2022-11-27T05:12:48.442Z,101037.56
2022-11-27T05:15:16.101Z,101036.88
2022-11-27T05:17:43.698Z,101027.84
2022-11-27T05:20:11.847Z,101028.84
2022-11-27T05:22:39.431Z,101035.06
2022-11-27T05:25:07.776Z,101032.00
2022-11-27T05:27:36.670Z,101043.88
2022-11-27T05:30:04.974Z,101033.41
2022-11-27T05:32:32.515Z,101030.34
2022-11-27T05:35:00.115Z,101050.41
2022-11-27T05:37:27.818Z,101044.59
2022-11-27T05:39:55.421Z,101044.66
2022-11-27T05:42:23.150Z,101035.91
2022-11-27T05:44:57.808Z,101036.00
2022-11-27T05:47:26.035Z,101038.53
2022-11-27T05:49:54.021Z,101032.94
2022-11-27T05:52:21.769Z,101039.38
2022-11-27T05:54:49.327Z,101035.66
2022-11-27T05:57:16.995Z,101044.75
2022-11-27T05:59:44.570Z,101039.66
2022-11-27T06:02:20.012Z,101025.97
2022-11-27T06:04:49.316Z,101035.91
2022-11-27T06:07:17.068Z,101032.38
2022-11-27T06:09:44.952Z,101021.66
2022-11-27T06:12:12.574Z,101023.72
2022-11-27T06:14:40.439Z,101020.72
2022-11-27T06:17:08.177Z,101015.72
2022-11-27T06:19:37.149Z,101011.34
2022-11-27T06:22:04.750Z,101003.72
2022-11-27T06:24:32.373Z,101002.50
2022-11-27T06:27:00.054Z,100998.34
2022-11-27T06:29:27.692Z,100996.25
2022-11-27T06:31:55.387Z,101000.00
2022-11-27T06:34:23.069Z,100990.34
2022-11-27T06:36:52.125Z,100989.13
2022-11-27T06:39:19.777Z,100983.50
2022-11-27T06:41:47.446Z,100976.41
2022-11-27T06:44:15.117Z,100971.56
2022-11-27T06:46:42.884Z,100968.28
2022-11-27T06:49:11.112Z,100972.81
2022-11-27T06:51:38.848Z,100966.97
2022-11-27T06:54:07.828Z,100968.66
2022-11-27T06:56:35.486Z,100975.81
2022-11-27T06:59:03.129Z,100977.47
2022-11-27T07:01:32.608Z,100971.91
2022-11-27T07:04:00.309Z,100971.47
2022-11-27T07:06:28.731Z,100957.34
2022-11-27T07:08:56.432Z,100960.19
2022-11-27T07:11:27.207Z,100961.09
2022-11-27T07:13:56.980Z,100939.47
2022-11-27T07:16:25.628Z,100942.19
2022-11-27T07:18:54.954Z,100931.38
2022-11-27T07:21:23.141Z,100934.91
2022-11-27T07:23:50.852Z,100925.41
2022-11-27T07:26:20.511Z,100915.47
2022-11-27T07:28:49.708Z,100924.53
2022-11-27T07:31:20.115Z,100924.53
2022-11-27T07:33:48.093Z,100933.38
2022-11-27T07:36:18.499Z,100925.91
2022-11-27T07:38:46.596Z,100927.28
2022-11-27T07:41:14.650Z,100934.81
2022-11-27T07:43:43.665Z,100920.66
2022-11-27T07:46:15.116Z,100926.44
2022-11-27T07:48:43.018Z,100934.44
2022-11-27T07:51:12.705Z,100941.72
2022-11-27T07:53:42.196Z,100944.63
2022-11-27T07:56:12.406Z,100942.31
2022-11-27T07:58:40.524Z,100940.22
2022-11-27T08:01:09.602Z,100953.03
2022-11-27T08:03:39.370Z,100966.81
2022-11-27T08:06:15.494Z,100959.31
2022-11-27T08:08:44.553Z,100946.19
2022-11-27T08:11:20.094Z,100937.25
2022-11-27T08:13:47.936Z,100939.78
2022-11-27T08:16:16.128Z,100926.97
2022-11-27T08:18:45.258Z,100907.72
2022-11-27T08:21:13.305Z,100895.78
2022-11-27T08:23:41.426Z,100886.59
2022-11-27T08:26:10.325Z,100880.19
2022-11-27T08:28:39.364Z,100884.06
2022-11-27T08:31:09.014Z,100886.03
2022-11-27T08:33:37.596Z,100876.28
2022-11-27T08:36:10.572Z,100870.84
2022-11-27T08:38:40.781Z,100859.69
2022-11-27T08:41:09.706Z,100857.72
2022-11-27T08:43:37.340Z,100847.13
2022-11-27T08:46:06.356Z,100836.13
2022-11-27T08:48:34.414Z,100845.38
2022-11-27T08:51:08.541Z,100854.84
2022-11-27T08:53:37.449Z,100856.38
2022-11-27T08:56:09.688Z,100850.38
2022-11-27T08:58:37.413Z,100859.84
2022-11-27T09:01:10.295Z,100851.50
2022-11-27T09:03:38.069Z,100850.59
2022-11-27T09:06:09.559Z,100852.41
2022-11-27T09:08:37.331Z,100859.09
2022-11-27T09:11:05.586Z,100861.06
2022-11-27T09:13:33.614Z,100867.13
2022-11-27T09:16:04.794Z,100874.72
2022-11-27T09:18:32.542Z,100869.63
2022-11-27T09:21:01.623Z,100881.13
2022-11-27T09:23:31.209Z,100882.66
2022-11-27T09:25:59.803Z,100876.16
2022-11-27T09:28:31.323Z,100865.56
2022-11-27T09:31:01.173Z,100855.72
2022-11-27T09:33:31.860Z,100852.03
2022-11-27T09:35:59.637Z,100856.06
2022-11-27T09:38:27.227Z,100847.63
2022-11-27T09:41:03.789Z,100845.19
2022-11-27T09:43:35.334Z,100847.56
2022-11-27T09:46:09.200Z,100846.59
2022-11-27T09:48:40.647Z,100847.47
2022-11-27T09:51:15.341Z,100841.63
2022-11-27T09:53:48.622Z,100834.41
2022-11-27T09:56:19.837Z,100831.78
2022-11-27T09:58:51.444Z,100825.22
2022-11-27T10:01:27.389Z,100836.03
2022-11-27T10:04:02.223Z,100848.50
2022-11-27T10:06:41.851Z,100843.06
2022-11-27T10:09:22.544Z,100845.44
2022-11-27T10:11:59.286Z,100830.69
2022-11-27T10:14:40.293Z,100841.84
2022-11-27T10:17:15.466Z,100843.53
2022-11-27T10:19:52.778Z,100831.94
2022-11-27T10:22:27.933Z,100825.31
2022-11-27T10:25:03.883Z,100811.38
2022-11-27T10:27:40.335Z,100806.91
2022-11-27T10:30:15.843Z,100796.00
2022-11-27T10:33:00.938Z,100793.00
2022-11-27T10:35:31.570Z,100793.53
2022-11-27T10:38:07.001Z,100796.47
2022-11-27T10:40:40.941Z,100802.13
2022-11-27T10:43:14.147Z,100789.53
2022-11-27T10:45:46.906Z,100778.53
2022-11-27T10:48:15.256Z,100778.28
2022-11-27T10:50:43.693Z,100762.59
2022-11-27T10:53:15.857Z,100748.81
2022-11-27T10:56:05.979Z,100732.75
2022-11-27T10:58:40.852Z,100732.50
2022-11-27T11:01:11.633Z,100723.78
2022-11-27T11:03:39.312Z,100706.25
2022-11-27T11:06:23.255Z,100704.63
2022-11-27T11:09:03.569Z,100694.97
2022-11-27T11:11:31.236Z,100683.97
2022-11-27T11:14:00.609Z,100684.22
2022-11-27T11:16:34.875Z,100685.44
2022-11-27T11:19:03.391Z,100671.97
2022-11-27T11:21:33.658Z,100678.75
2022-11-27T11:24:03.715Z,100669.50
2022-11-27T11:26:34.453Z,100671.81
2022-11-27T11:29:05.860Z,100687.81
2022-11-27T11:31:37.853Z,100692.19
2022-11-27T11:34:22.399Z,100691.13
2022-11-27T11:36:58.474Z,100688.09
2022-11-27T11:39:28.635Z,100687.28
2022-11-27T11:41:56.951Z,100678.94
2022-11-27T11:44:34.004Z,100673.47
2022-11-27T11:47:02.724Z,100668.84
2022-11-27T11:49:32.710Z,100672.09
2022-11-27T11:52:12.722Z,100663.66
2022-11-27T11:54:56.104Z,100659.66
2022-11-27T11:57:54.971Z,100662.16
2022-11-27T12:00:30.799Z,100650.22
2022-11-27T12:03:22.292Z,100649.03
2022-11-27T12:06:05.204Z,100643.13
2022-11-27T12:08:49.169Z,100641.63
2022-11-27T12:11:19.162Z,100627.47
2022-11-27T12:14:02.818Z,100630.44
2022-11-27T12:16:36.140Z,100634.19
2022-11-27T12:19:25.617Z,100635.50
2022-11-27T12:22:04.660Z,100628.72
2022-11-27T12:24:45.645Z,100616.78
2022-11-27T12:27:27.545Z,100617.78
2022-11-27T12:30:11.247Z,100618.78
2022-11-27T12:33:05.291Z,100621.72
2022-11-27T12:35:34.832Z,100621.44
2022-11-27T12:38:39.643Z,100609.78
2022-11-27T12:41:26.222Z,100614.56
2022-11-27T12:44:00.219Z,100604.06
2022-11-27T12:46:37.450Z,100598.13
2022-11-27T12:49:14.537Z,100598.22
2022-11-27T12:51:50.048Z,100593.25
2022-11-27T12:54:21.812Z,100584.97
2022-11-27T12:56:54.747Z,100587.75
2022-11-27T12:59:26.339Z,100578.97
2022-11-27T13:02:02.359Z,100582.72
2022-11-27T13:04:38.121Z,100584.44
2022-11-27T13:07:11.219Z,100583.63
2022-11-27T13:09:46.071Z,100570.47
2022-11-27T13:12:21.608Z,100580.97
2022-11-27T13:14:56.083Z,100580.13
2022-11-27T13:17:26.557Z,100573.38
2022-11-27T13:19:55.802Z,100582.56
2022-11-27T13:22:29.845Z,100589.38
2022-11-27T13:25:01.311Z,100591.13
2022-11-27T13:27:31.472Z,100583.69
2022-11-27T13:30:02.908Z,100582.94
2022-11-27T13:32:34.328Z,100584.31
2022-11-27T13:35:07.938Z,100583.63
2022-11-27T13:37:38.714Z,100567.72
2022-11-27T13:40:15.431Z,100565.41
2022-11-27T13:42:46.007Z,100560.97
2022-11-27T13:45:22.163Z,100556.16
2022-11-27T13:47:51.837Z,100548.66
2022-11-27T13:50:26.938Z,100534.72
2022-11-27T13:53:00.387Z,100532.22
2022-11-27T13:55:30.986Z,100538.69
2022-11-27T13:58:01.008Z,100518.78
2022-11-27T14:00:35.268Z,100517.50
2022-11-27T14:03:03.385Z,100515.88
2022-11-27T14:05:40.871Z,100509.59
2022-11-27T14:08:19.550Z,100511.50
2022-11-27T14:10:54.247Z,100508.94
2022-11-27T14:13:27.391Z,100496.50
2022-11-27T14:16:02.563Z,100486.69
2022-11-27T14:18:31.805Z,100486.34
2022-11-27T14:21:03.677Z,100472.31
2022-11-27T14:23:33.436Z,100464.50
2022-11-27T14:26:20.170Z,100461.72
2022-11-27T14:28:52.753Z,100457.47
2022-11-27T14:31:26.706Z,100454.09
2022-11-27T14:36:43.576Z,100440.53
2022-11-27T14:39:22.575Z,100439.47
2022-11-27T14:41:57.558Z,100431.75
2022-11-27T14:44:25.644Z,100428.97
2022-11-27T14:46:53.901Z,100429.09
2022-11-27T14:49:24.750Z,100434.38
2022-11-27T14:51:55.466Z,100435.59
2022-11-27T14:54:26.541Z,100437.16
2022-11-27T14:56:54.618Z,100435.16
2022-11-27T14:59:24.972Z,100431.72
2022-11-27T15:02:01.168Z,100424.03
2022-11-27T15:04:30.464Z,100422.53
2022-11-27T15:07:00.442Z,100417.25
2022-11-27T15:09:43.333Z,100411.34
2022-11-27T15:12:18.282Z,100406.31
2022-11-27T15:14:47.982Z,100409.66
2022-11-27T15:17:18.256Z,100403.28
2022-11-27T15:19:46.027Z,100404.69
2022-11-27T15:22:19.578Z,100399.34
2022-11-27T15:24:47.132Z,100396.63
2022-11-27T15:27:20.308Z,100390.63
2022-11-27T15:30:02.495Z,100383.72
2022-11-27T15:32:45.680Z,100375.31
2022-11-27T15:35:15.714Z,100383.06
2022-11-27T15:37:44.715Z,100369.31
2022-11-27T15:40:27.923Z,100369.31
2022-11-27T15:42:55.519Z,100368.09
2022-11-27T15:45:24.145Z,100356.22
2022-11-27T15:47:59.143Z,100349.22
2022-11-27T15:50:27.200Z,100348.38
2022-11-27T15:52:56.324Z,100353.75
2022-11-27T15:55:25.066Z,100350.56
2022-11-27T15:57:52.787Z,100349.00
2022-11-27T16:00:22.653Z,100350.13
2022-11-27T16:02:50.464Z,100341.19
2022-11-27T16:05:18.502Z,100333.25
2022-11-27T16:07:46.966Z,100328.72
2022-11-27T16:10:18.237Z,100329.13
2022-11-27T16:12:45.828Z,100325.47
2022-11-27T16:15:13.451Z,100319.91
2022-11-27T16:17:41.091Z,100326.31
2022-11-27T16:20:09.926Z,100310.09
2022-11-27T16:22:37.604Z,100306.44
2022-11-27T16:25:05.669Z,100303.88
2022-11-27T16:27:34.704Z,100299.66
2022-11-27T16:30:02.326Z,100300.28
2022-11-27T16:32:30.076Z,100310.38
2022-11-27T16:34:58.344Z,100303.28
2022-11-27T16:37:25.967Z,100304.63
2022-11-27T16:39:54.223Z,100304.50
2022-11-27T16:42:22.200Z,100314.56
2022-11-27T16:44:51.227Z,100303.31
2022-11-27T16:47:18.940Z,100297.00
2022-11-27T16:49:49.551Z,100285.06
2022-11-27T16:52:17.201Z,100288.56
2022-11-27T16:54:45.194Z,100288.25
2022-11-27T16:57:13.692Z,100296.41
2022-11-27T16:59:41.455Z,100277.59
2022-11-27T17:02:12.261Z,100277.72
2022-11-27T17:04:40.213Z,100272.69
2022-11-27T17:07:07.988Z,100265.91
2022-11-27T17:09:35.610Z,100253.06
2022-11-27T17:12:03.349Z,100260.66
2022-11-27T17:14:33.111Z,100252.94
2022-11-27T17:17:01.364Z,100250.47
2022-11-27T17:19:32.095Z,100245.50
2022-11-27T17:21:59.855Z,100241.28
2022-11-27T17:24:28.810Z,100233.63
2022-11-27T17:26:56.726Z,100236.03
2022-11-27T17:29:33.672Z,100225.00
2022-11-27T17:32:03.918Z,100226.56
2022-11-27T17:34:33.260Z,100238.34
2022-11-27T17:37:02.695Z,100231.41
2022-11-27T17:39:30.795Z,100226.38
2022-11-27T17:41:58.411Z,100214.56
2022-11-27T17:44:26.137Z,100213.63
2022-11-27T17:46:53.749Z,100210.44
2022-11-27T17:49:21.851Z,100217.84
2022-11-27T17:51:51.983Z,100234.69
2022-11-27T17:54:20.943Z,100242.66
2022-11-27T17:56:51.190Z,100236.13
2022-11-27T17:59:19.686Z,100215.44
2022-11-27T18:01:48.331Z,100192.59
2022-11-27T18:04:16.080Z,100180.81
2022-11-27T18:06:43.705Z,100175.66
2022-11-27T18:09:12.957Z,100169.59
2022-11-27T18:11:41.550Z,100166.00
2022-11-27T18:14:12.983Z,100177.00
2022-11-27T18:16:41.932Z,100165.78
2022-11-27T18:19:11.332Z,100155.59
2022-11-27T18:21:39.472Z,100153.16
2022-11-27T18:24:22.962Z,100151.78
2022-11-27T18:29:44.502Z,100135.22
2022-11-27T18:32:13.617Z,100147.16
2022-11-27T18:34:42.358Z,100137.13
2022-11-27T18:37:10.873Z,100130.41
2022-11-27T18:39:40.421Z,100132.25
2022-11-27T18:42:09.810Z,100132.31
2022-11-27T18:44:44.341Z,100141.88
2022-11-27T18:47:13.714Z,100130.88
2022-11-27T18:49:43.446Z,100119.91
2022-11-27T18:52:12.052Z,100118.41
2022-11-27T18:54:39.910Z,100104.75
2022-11-27T18:57:08.294Z,100108.13
2022-11-27T18:59:38.133Z,100103.88
2022-11-27T19:02:06.244Z,100107.38
2022-11-27T19:04:35.796Z,100107.38
2022-11-27T19:07:03.638Z,100102.28
2022-11-27T19:09:31.734Z,100103.25
2022-11-27T19:11:59.416Z,100107.25
2022-11-27T19:14:27.095Z,100102.28
2022-11-27T19:16:56.440Z,100093.16
2022-11-27T19:19:53.515Z,100083.94
2022-11-27T19:22:13.917Z,100076.25
2022-11-27T19:24:41.601Z,100060.94
2022-11-27T19:27:09.949Z,100059.97
2022-11-27T19:29:37.776Z,100051.53
2022-11-27T19:32:06.847Z,100049.06
2022-11-27T19:34:34.870Z,100048.09
2022-11-27T19:37:02.921Z,100045.34
2022-11-27T19:39:30.668Z,100048.03
2022-11-27T19:41:59.071Z,100053.13
2022-11-27T19:44:26.771Z,100050.47
2022-11-27T19:46:54.675Z,100048.84
2022-11-27T19:49:23.952Z,100066.53
2022-11-27T19:51:51.634Z,100071.53
2022-11-27T19:54:20.523Z,100074.88
2022-11-27T19:56:48.110Z,100074.88
2022-11-27T19:59:15.951Z,100066.72
2022-11-27T20:01:43.780Z,100054.88
2022-11-27T20:04:12.222Z,100063.50
2022-11-27T20:06:41.230Z,100054.44
2022-11-27T20:09:09.609Z,100058.41
2022-11-27T20:11:37.851Z,100044.53
2022-11-27T20:14:06.638Z,100030.31
2022-11-27T20:16:36.328Z,100001.28
2022-11-27T20:19:07.569Z,100015.00
2022-11-27T20:21:36.489Z,100068.59
2022-11-27T20:24:06.098Z,100051.25
2022-11-27T20:26:36.156Z,100058.75
2022-11-27T20:29:06.356Z,100044.25
2022-11-27T20:31:37.318Z,100006.00
2022-11-27T20:34:07.333Z,100027.34
2022-11-27T20:36:38.984Z,100051.84
2022-11-27T20:39:10.590Z,100058.25
2022-11-27T20:41:38.716Z,100042.94
2022-11-27T20:44:06.736Z,100036.22
2022-11-27T20:46:35.422Z,100034.63
2022-11-27T20:49:03.115Z,100033.00
2022-11-27T20:51:33.809Z,100038.25
2022-11-27T20:54:10.143Z,100035.19
2022-11-27T20:56:38.338Z,100043.50
2022-11-27T20:59:07.716Z,100041.53
2022-11-27T21:01:37.358Z,100031.41
2022-11-27T21:04:09.415Z,100029.78
2022-11-27T21:06:43.455Z,100011.28
2022-11-27T21:09:14.255Z,100009.81
2022-11-27T21:11:42.544Z,100014.91
2022-11-27T21:14:12.616Z,99999.59
2022-11-27T21:16:42.865Z,99998.84
2022-11-27T21:19:15.229Z,100008.47
2022-11-27T21:21:43.209Z,100001.00
2022-11-27T21:24:12.984Z,100002.53
2022-11-27T21:26:42.537Z,100010.25
2022-11-27T21:29:12.114Z,99998.44
2022-11-27T21:31:46.195Z,100002.75
2022-11-27T21:34:15.042Z,100002.03
2022-11-27T21:36:43.364Z,99993.44
2022-11-27T21:39:14.268Z,99991.66
2022-11-27T21:41:41.921Z,99986.44
2022-11-27T21:44:11.130Z,99980.31
2022-11-27T21:46:39.217Z,99972.59
2022-11-27T21:49:07.954Z,99977.53
2022-11-27T21:51:35.689Z,99979.22
2022-11-27T21:54:07.597Z,99990.97
2022-11-27T21:56:38.457Z,99993.41
2022-11-27T21:59:06.440Z,99988.94
2022-11-27T22:01:34.541Z,99988.94
2022-11-27T22:04:02.564Z,99992.44
2022-11-27T22:06:32.217Z,99992.59
2022-11-27T22:09:00.216Z,99981.44
2022-11-27T22:11:30.349Z,99960.22
2022-11-27T22:14:01.986Z,99950.00
2022-11-27T22:16:31.470Z,99944.84
2022-11-27T22:19:01.167Z,99940.41
2022-11-27T22:21:30.282Z,99940.13
2022-11-27T22:23:59.491Z,99925.53
2022-11-27T22:26:27.820Z,99918.81
2022-11-27T22:28:57.036Z,99920.59
2022-11-27T22:31:27.929Z,99909.28
2022-11-27T22:33:56.709Z,99909.69
2022-11-27T22:36:26.904Z,99895.19
2022-11-27T22:38:56.349Z,99890.75
2022-11-27T22:41:25.603Z,99893.97
2022-11-27T22:43:53.499Z,99888.75
2022-11-27T22:46:23.359Z,99880.28
2022-11-27T22:48:55.334Z,99886.19
2022-11-27T22:51:25.252Z,99891.25
2022-11-27T22:53:53.146Z,99888.59
2022-11-27T22:56:21.263Z,99895.31
2022-11-27T22:58:49.246Z,99892.72
2022-11-27T23:01:19.579Z,99889.34
2022-11-27T23:03:47.576Z,99879.13
2022-11-27T23:06:18.083Z,99875.03
2022-11-27T23:08:47.180Z,99871.59
2022-11-27T23:11:16.845Z,99866.44
2022-11-27T23:13:49.503Z,99881.75
2022-11-27T23:16:18.574Z,99877.91
2022-11-27T23:18:46.386Z,99888.00
2022-11-27T23:21:18.310Z,99882.97
2022-11-27T23:23:47.157Z,99880.53
2022-11-27T23:26:18.472Z,99870.47
2022-11-27T23:28:46.564Z,99872.09
2022-11-27T23:31:29.385Z,99869.53
2022-11-27T23:33:57.805Z,99868.66
2022-11-27T23:36:26.959Z,99887.19
2022-11-27T23:38:54.574Z,99879.38
2022-11-27T23:41:24.920Z,99883.69
2022-11-27T23:43:53.807Z,99880.41
2022-11-27T23:46:26.838Z,99881.22
2022-11-27T23:48:55.406Z,99865.91
2022-11-27T23:51:26.435Z,99865.75
2022-11-27T23:53:54.790Z,99867.38
2022-11-27T23:56:24.127Z,99870.75
2022-11-27T23:58:51.977Z,99865.44
